»·PEaware :: QXE717 KBFI-KPDX

QXE717 :: KBFI-KPDX

FLIGHT INFORMATION

Flight Status: Arrived
Operator:
Horizon Air
More flights by this operator :: More flights under this callsign
Pilot: Ty S. (2873)
Aircraft: DEHAVILLAND DASH 8 400
(DH8D)
More flights by this aircraft type
Origin: KBFI Boeing Field/King Co Intl
United States
Destination: KPDX Portland Intl
United States
More flights between these airports :: More routes between these airports
Route: BUWZO KRATR2
File this flight plan on PilotEdge
Remarks: PBN / D1 DOF / 181006 REG / N847SB OPR / QXE PER / C RMK / TCAS SIMBRIEF
Altitude:
(Current/Filed)
17,000ft
Speed:
(Current/Filed)
315kts
Departed: 05-Oct-18 05:38 PM
Arrived: 05-Oct-18 06:17 PM
Distance/Time
Traveled:
117nm/0:38
Distance/Time
To Go:
Arrived

Flight Plot

Page will automatically refresh every two minutes.

Flight plan parsing failed; only flown route is shown


Map Options




Map Legend


Flown Route
Filed Route
Departure Airport
Arrival Airport
Navaid (VOR, NDB)
Fix

Horizontal Profiles

Position Reports

Time Latitude Longitude Heading Altitude Ground
Speed
05-Oct-18 17:09 47.535941 -122.303710 113 25ft 0kts
05-Oct-18 17:10 47.535941 -122.303710 113 25ft 0kts
05-Oct-18 17:11 47.535941 -122.303711 113 25ft 0kts
05-Oct-18 17:12 47.535941 -122.303710 113 25ft 0kts
05-Oct-18 17:13 47.535941 -122.303710 113 25ft 0kts
05-Oct-18 17:14 47.535941 -122.303710 113 25ft 0kts
05-Oct-18 17:15 47.535941 -122.303710 113 25ft 0kts
05-Oct-18 17:16 47.535941 -122.303710 113 25ft 0kts
05-Oct-18 17:17 47.535941 -122.303710 113 25ft 0kts
05-Oct-18 17:18 47.535941 -122.303710 113 25ft 0kts
05-Oct-18 17:19 47.535941 -122.303710 113 25ft 0kts
05-Oct-18 17:20 47.535941 -122.303710 113 25ft 0kts
05-Oct-18 17:21 47.535941 -122.303710 113 25ft 0kts
05-Oct-18 17:22 47.535941 -122.303710 113 25ft 0kts
05-Oct-18 17:23 47.535941 -122.303710 113 25ft 0kts
05-Oct-18 17:24 47.535941 -122.303710 113 25ft 0kts
05-Oct-18 17:25 47.535941 -122.303710 113 25ft 0kts
05-Oct-18 17:26 47.535941 -122.303710 113 25ft 0kts
05-Oct-18 17:27 47.535941 -122.303710 113 25ft 0kts
05-Oct-18 17:28 47.535941 -122.303710 113 25ft 0kts
05-Oct-18 17:29 47.535880 -122.303654 166 25ft 0kts
05-Oct-18 17:30 47.535880 -122.303654 166 25ft 0kts
05-Oct-18 17:31 47.534099 -122.302955 150 25ft 11kts
05-Oct-18 17:32 47.530870 -122.300256 150 25ft 12kts
05-Oct-18 17:33 47.528050 -122.298409 189 25ft 9kts
05-Oct-18 17:34 47.525736 -122.297317 150 25ft 11kts
05-Oct-18 17:35 47.522844 -122.294827 148 25ft 12kts
05-Oct-18 17:36 47.520161 -122.292540 154 25ft 0kts
05-Oct-18 17:37 47.519190 -122.292425 226 25ft 8kts
05-Oct-18 17:38 47.519270 -122.293412 329 25ft 0kts
05-Oct-18 17:39 47.519270 -122.293412 329 25ft 0kts
05-Oct-18 17:40 47.527730 -122.300579 330 43ft 150kts
05-Oct-18 17:41 47.568764 -122.336045 330 1857ft 235kts
05-Oct-18 17:42 47.615041 -122.398948 312 5044ft 213kts
05-Oct-18 17:43 47.584554 -122.450850 161 7824ft 249kts
05-Oct-18 17:44 47.517608 -122.436500 179 10830ft 243kts
05-Oct-18 17:45 47.452796 -122.422505 178 13737ft 245kts
05-Oct-18 17:46 47.383582 -122.406871 178 16311ft 259kts
05-Oct-18 17:47 47.305019 -122.389193 177 16998ft 323kts
05-Oct-18 17:48 47.212383 -122.368151 176 16996ft 349kts
05-Oct-18 17:49 47.115582 -122.346288 176 16970ft 355kts
05-Oct-18 17:50 47.017846 -122.324327 176 16963ft 357kts
05-Oct-18 17:51 46.920364 -122.310072 184 16951ft 353kts
05-Oct-18 17:52 46.829230 -122.309659 184 16947ft 353kts
05-Oct-18 17:53 46.731107 -122.309634 184 16947ft 353kts
05-Oct-18 17:54 46.633400 -122.309632 184 16946ft 353kts
05-Oct-18 17:55 46.535892 -122.309630 184 16946ft 353kts
05-Oct-18 17:56 46.437967 -122.309629 184 16946ft 353kts
05-Oct-18 17:57 46.341565 -122.309609 185 16943ft 337kts
05-Oct-18 17:58 46.250577 -122.316949 201 16959ft 321kts
05-Oct-18 17:59 46.166365 -122.360437 205 15265ft 320kts
05-Oct-18 18:00 46.084698 -122.405523 204 13243ft 311kts
05-Oct-18 18:01 46.005216 -122.448498 203 11226ft 299kts
05-Oct-18 18:02 45.935347 -122.487335 215 10192ft 255kts
05-Oct-18 18:03 45.885320 -122.546874 219 8518ft 250kts
05-Oct-18 18:04 45.834245 -122.610764 218 6754ft 248kts
05-Oct-18 18:05 45.789259 -122.680450 234 5017ft 251kts
05-Oct-18 18:06 45.752470 -122.765361 235 3223ft 252kts
05-Oct-18 18:07 45.707052 -122.818152 172 2942ft 181kts
05-Oct-18 18:08 45.669901 -122.784368 144 2183ft 155kts
05-Oct-18 18:09 45.641438 -122.745365 151 1964ft 118kts
05-Oct-18 18:10 45.621879 -122.725152 101 2510ft 105kts
05-Oct-18 18:11 45.597039 -122.729109 266 2536ft 167kts
05-Oct-18 18:12 45.616651 -122.792535 295 2441ft 183kts
05-Oct-18 18:13 45.646060 -122.844699 6 2451ft 169kts
05-Oct-18 18:14 45.663708 -122.797874 120 2447ft 152kts
05-Oct-18 18:15 45.645181 -122.750443 119 2113ft 117kts
05-Oct-18 18:16 45.630104 -122.711483 118 1540ft 112kts
05-Oct-18 18:17 45.615073 -122.672693 118 865ft 109kts
05-Oct-18 18:18 45.600464 -122.634994 116 304ft 107kts
05-Oct-18 18:19 45.589164 -122.606131 117 36ft 31kts
05-Oct-18 18:20 45.588158 -122.599057 76 36ft 10kts
05-Oct-18 18:21 45.586315 -122.593730 127 36ft 9kts
05-Oct-18 18:22 45.586457 -122.592802 56 36ft 0kts
05-Oct-18 18:23 45.586457 -122.592802 56 36ft 0kts
05-Oct-18 18:24 45.586457 -122.592802 56 36ft 0kts
05-Oct-18 18:25 45.586457 -122.592802 56 36ft 0kts
05-Oct-18 18:26 45.586457 -122.592802 56 36ft 0kts
05-Oct-18 18:27 45.586457 -122.592802 56 36ft 0kts
05-Oct-18 18:28 45.586457 -122.592802 56 36ft 0kts

Navigation Log

Ident Type
Flight plan parsing failed, navigation log unavailable